createdAt,value
2018-09-17T00:01:18.485Z,96.58
2018-09-17T00:03:50.323Z,97.02
2018-09-17T00:06:19.498Z,96.90
2018-09-17T00:08:49.296Z,96.72
2018-09-17T00:11:18.503Z,96.54
2018-09-17T00:13:48.433Z,96.24
2018-09-17T00:16:17.614Z,96.15
2018-09-17T00:18:47.504Z,96.26
2018-09-17T00:21:17.879Z,96.15
2018-09-17T00:23:49.686Z,96.87
2018-09-17T00:26:18.835Z,96.52
2018-09-17T00:28:49.883Z,97.08
2018-09-17T00:31:19.054Z,97.33
2018-09-17T00:33:48.812Z,97.46
2018-09-17T00:36:18.090Z,97.47
2018-09-17T00:38:47.396Z,97.26
2018-09-17T00:41:17.340Z,97.03
2018-09-17T00:43:47.705Z,96.99
2018-09-17T00:46:17.656Z,97.76
2018-09-17T00:48:47.804Z,98.21
2018-09-17T00:51:19.560Z,98.30
2018-09-17T00:53:49.165Z,97.91
2018-09-17T00:56:18.386Z,98.48
2018-09-17T00:58:49.454Z,98.59
2018-09-17T01:01:18.674Z,98.51
2018-09-17T01:03:48.194Z,97.98
2018-09-17T01:06:18.200Z,98.53
2018-09-17T01:08:49.678Z,98.64
2018-09-17T01:11:18.876Z,98.25
2018-09-17T01:13:48.380Z,98.62
2018-09-17T01:16:17.868Z,98.18
2018-09-17T01:18:48.342Z,98.24
2018-09-17T01:21:17.614Z,98.28
2018-09-17T01:23:48.078Z,98.62
2018-09-17T01:26:17.934Z,98.44
2018-09-17T01:28:48.077Z,98.17
2018-09-17T01:31:17.684Z,98.89
2018-09-17T01:33:47.950Z,98.34
2018-09-17T01:36:18.273Z,98.46
2018-09-17T01:38:48.100Z,98.79
2018-09-17T01:41:18.044Z,98.52
2018-09-17T01:43:48.341Z,98.76
2018-09-17T01:46:18.119Z,97.98
2018-09-17T01:48:48.285Z,98.06
2018-09-17T01:51:19.148Z,98.40
2018-09-17T01:53:49.901Z,98.02
2018-09-17T01:56:19.244Z,98.29
2018-09-17T01:58:49.274Z,98.08
2018-09-17T02:01:18.432Z,98.20
2018-09-17T02:03:48.392Z,97.88
2018-09-17T02:06:18.177Z,98.31
2018-09-17T02:08:48.400Z,98.23
2018-09-17T02:11:18.276Z,98.40
2018-09-17T02:13:48.568Z,98.17
2018-09-17T02:16:18.249Z,98.08
2018-09-17T02:18:48.477Z,98.45
2018-09-17T02:21:18.253Z,97.71
2018-09-17T02:23:48.559Z,98.18
2018-09-17T02:26:18.268Z,97.66
2018-09-17T02:28:48.666Z,98.01
2018-09-17T02:31:18.645Z,98.09
2018-09-17T02:33:50.423Z,97.87
2018-09-17T02:36:19.650Z,98.15
2018-09-17T02:38:48.798Z,97.83
2018-09-17T02:41:18.457Z,97.62
2018-09-17T02:43:48.876Z,98.48
2018-09-17T02:46:18.568Z,98.40
2018-09-17T02:48:48.936Z,97.92
2018-09-17T02:51:18.953Z,98.62
2018-09-17T02:53:48.901Z,98.21
2018-09-17T02:56:18.669Z,98.61
2018-09-17T02:58:49.021Z,98.44
2018-09-17T03:01:18.727Z,98.60
2018-09-17T03:03:49.092Z,98.37
2018-09-17T03:06:18.754Z,98.08
2018-09-17T03:08:49.146Z,98.03
2018-09-17T03:11:18.722Z,98.22
2018-09-17T03:13:48.944Z,97.86
2018-09-17T03:16:20.762Z,98.02
2018-09-17T03:18:52.756Z,97.92
2018-09-17T03:21:23.707Z,98.42
2018-09-17T03:23:53.731Z,97.90
2018-09-17T03:26:23.224Z,98.39
2018-09-17T03:28:52.402Z,98.33
2018-09-17T03:31:21.531Z,99.05
2018-09-17T03:33:52.530Z,98.52
2018-09-17T03:36:21.758Z,99.00
2018-09-17T03:38:51.704Z,98.07
2018-09-17T03:41:22.685Z,98.87
2018-09-17T03:43:55.273Z,99.14
2018-09-17T03:46:24.515Z,98.81
2018-09-17T03:48:53.695Z,99.00
2018-09-17T03:51:22.849Z,98.99
2018-09-17T03:53:52.099Z,99.38
2018-09-17T03:56:21.217Z,98.58
2018-09-17T03:58:50.369Z,98.74
2018-09-17T04:01:19.523Z,98.62
2018-09-17T04:03:49.721Z,98.67
2018-09-17T04:06:19.436Z,98.60
2018-09-17T04:08:49.735Z,98.54
2018-09-17T04:11:19.485Z,98.73
2018-09-17T04:13:49.811Z,98.51
2018-09-17T04:16:19.481Z,98.65
2018-09-17T04:18:51.441Z,98.46
2018-09-17T04:21:20.661Z,98.71
2018-09-17T04:23:49.765Z,98.30
2018-09-17T04:26:19.589Z,98.61
2018-09-17T04:28:49.864Z,98.96
2018-09-17T04:31:19.659Z,98.51
2018-09-17T04:33:49.913Z,98.69
2018-09-17T04:36:20.907Z,98.74
2018-09-17T04:38:51.830Z,99.04
2018-09-17T04:41:21.043Z,98.58
2018-09-17T04:43:50.197Z,98.67
2018-09-17T04:46:19.965Z,98.80
2018-09-17T04:53:50.411Z,98.00
2018-09-17T04:56:20.067Z,97.99
2018-09-17T05:03:43.859Z,98.54
2018-09-17T05:06:16.547Z,98.78
2018-09-17T05:08:46.075Z,99.46
2018-09-17T05:11:15.269Z,99.32
2018-09-17T05:23:05.183Z,100.00
2018-09-17T05:25:34.985Z,100.00
2018-09-17T05:28:05.206Z,100.00
2018-09-17T05:30:35.072Z,100.00
2018-09-17T05:33:05.272Z,100.00
2018-09-17T05:35:35.262Z,100.00
2018-09-17T05:38:05.209Z,100.00
2018-09-17T05:40:35.336Z,100.00
2018-09-17T05:43:05.158Z,100.00
2018-09-17T08:29:21.298Z,98.41
2018-09-17T08:31:50.354Z,98.35
2018-09-17T08:34:19.456Z,97.21
2018-09-17T08:36:48.552Z,97.84
2018-09-17T08:39:17.593Z,97.72
2018-09-17T08:41:46.689Z,97.59
2018-09-17T08:44:15.910Z,97.22
2018-09-17T08:46:45.003Z,96.57
2018-09-17T08:49:14.033Z,96.49
2018-09-17T08:51:43.124Z,95.26
2018-09-17T08:54:12.253Z,93.84
2018-09-17T08:56:59.590Z,93.91
2018-09-17T08:59:33.938Z,93.86
2018-09-17T09:02:23.102Z,94.05
2018-09-17T09:04:54.139Z,90.23
2018-09-17T09:07:28.845Z,89.05
2018-09-17T09:10:03.076Z,88.89
2018-09-17T09:12:37.409Z,90.01
2018-09-17T09:15:11.672Z,90.02
2018-09-17T09:17:40.848Z,91.32
2018-09-17T09:20:09.920Z,90.96
2018-09-17T09:22:38.987Z,88.39
2018-09-17T09:25:08.055Z,88.49
2018-09-17T09:27:37.807Z,87.21
2018-09-17T09:30:07.983Z,87.29
2018-09-17T09:32:37.874Z,87.02
2018-09-17T09:35:07.993Z,86.37
2018-09-17T09:37:37.909Z,84.17
2018-09-17T09:40:08.048Z,83.93
2018-09-17T09:42:37.942Z,84.25
2018-09-17T09:45:07.972Z,83.66
2018-09-17T09:47:37.982Z,85.20
2018-09-17T09:50:08.182Z,85.90
2018-09-17T09:52:38.031Z,84.12
2018-09-17T09:55:08.195Z,83.01
2018-09-17T09:57:37.279Z,83.41
2018-09-17T10:00:12.418Z,83.40
2018-09-17T10:02:46.563Z,84.69
2018-09-17T10:05:15.805Z,82.91
2018-09-17T10:07:44.851Z,83.03
2018-09-17T10:10:19.210Z,82.25
2018-09-17T10:12:53.404Z,81.64
2018-09-17T10:15:27.759Z,80.79
2018-09-17T10:18:01.888Z,80.83
2018-09-17T10:20:30.938Z,79.55
2018-09-17T10:23:00.057Z,79.82
2018-09-17T10:25:29.092Z,78.38
2018-09-17T10:27:58.146Z,78.13
2018-09-17T10:30:27.255Z,76.15
2018-09-17T10:32:56.395Z,75.92
2018-09-17T10:35:25.530Z,76.44
2018-09-17T10:37:54.600Z,77.00
2018-09-17T10:40:23.653Z,75.83
2018-09-17T10:42:52.709Z,75.94
2018-09-17T10:45:21.754Z,74.98
2018-09-17T10:47:50.821Z,75.11
2018-09-17T10:50:20.017Z,75.95
2018-09-17T10:52:49.074Z,74.98
2018-09-17T10:55:18.137Z,73.37
2018-09-17T10:57:47.181Z,73.36
2018-09-17T11:00:16.293Z,75.17
2018-09-17T11:02:45.521Z,74.29
2018-09-17T11:05:14.635Z,74.87
2018-09-17T11:07:43.669Z,73.44
2018-09-17T11:10:12.767Z,73.22
2018-09-17T11:12:41.820Z,73.06
2018-09-17T11:15:10.925Z,72.38
2018-09-17T11:17:40.449Z,73.10
2018-09-17T11:20:09.465Z,71.32
2018-09-17T11:22:39.419Z,71.05
2018-09-17T11:25:08.999Z,72.23
2018-09-17T11:27:39.098Z,70.44
2018-09-17T11:30:09.036Z,69.55
2018-09-17T11:32:39.135Z,69.13
2018-09-17T11:35:09.232Z,67.58
2018-09-17T11:37:39.179Z,69.30
2018-09-17T11:40:09.325Z,68.45
2018-09-17T11:42:39.272Z,68.85
2018-09-17T11:45:09.339Z,67.99
2018-09-17T11:47:39.321Z,67.19
2018-09-17T11:50:09.386Z,65.43
2018-09-17T11:52:39.346Z,66.55
2018-09-17T11:55:09.421Z,67.29
2018-09-17T11:57:39.447Z,67.08
2018-09-17T12:00:09.444Z,64.00
2018-09-17T12:02:43.546Z,65.85
2018-09-17T12:05:16.741Z,66.20
2018-09-17T12:07:45.782Z,64.92
2018-09-17T12:10:14.818Z,65.28
2018-09-17T12:12:43.850Z,64.21
2018-09-17T12:15:12.964Z,64.61
2018-09-17T12:17:42.129Z,62.77
2018-09-17T12:20:11.175Z,66.02
2018-09-17T12:22:40.233Z,64.41
2018-09-17T12:25:09.664Z,64.33
2018-09-17T12:27:39.648Z,62.06
2018-09-17T12:30:09.742Z,62.72
2018-09-17T12:32:39.573Z,64.86
2018-09-17T12:35:09.721Z,63.68
2018-09-17T12:37:39.642Z,65.47
2018-09-17T12:40:09.794Z,63.86
2018-09-17T12:42:39.848Z,61.46
2018-09-17T12:45:09.819Z,59.87
2018-09-17T12:47:39.898Z,58.33
2018-09-17T12:50:10.020Z,60.06
2018-09-17T12:52:39.930Z,58.37
2018-09-17T13:05:11.518Z,60.44
2018-09-17T13:07:45.129Z,58.40
2018-09-17T13:10:14.470Z,56.37
2018-09-17T13:12:53.154Z,55.91
2018-09-17T13:15:23.763Z,57.05
2018-09-17T13:17:54.866Z,54.64
2018-09-17T13:20:27.795Z,57.50
2018-09-17T13:23:04.761Z,55.62
2018-09-17T13:25:41.851Z,57.05
2018-09-17T13:28:14.622Z,54.66
2018-09-17T13:30:46.489Z,56.56
2018-09-17T13:33:20.301Z,57.29
2018-09-17T13:35:52.595Z,55.87
2018-09-17T13:38:24.347Z,55.90
2018-09-17T13:40:56.302Z,57.12
2018-09-17T13:43:29.268Z,57.21
2018-09-17T13:46:00.671Z,55.79
2018-09-17T13:48:33.325Z,54.25
2018-09-17T13:51:05.932Z,54.84
2018-09-17T13:53:41.990Z,55.60
2018-09-17T13:56:18.645Z,53.80
2018-09-17T13:58:56.607Z,55.62
2018-09-17T14:01:33.798Z,52.14
2018-09-17T14:04:12.311Z,52.87
2018-09-17T14:06:50.002Z,55.58
2018-09-17T14:09:25.852Z,56.79
2018-09-17T14:12:05.705Z,56.57
2018-09-17T14:14:44.245Z,54.23
2018-09-17T14:17:21.511Z,55.59
2018-09-17T14:19:59.131Z,54.31
2018-09-17T14:22:34.130Z,53.69
2018-09-17T14:25:07.125Z,52.99
2018-09-17T14:27:43.640Z,51.17
2018-09-17T14:30:17.471Z,50.95
2018-09-17T14:32:55.652Z,51.31
2018-09-17T14:38:19.324Z,50.26
2018-09-17T14:40:54.620Z,50.99
2018-09-17T14:43:28.321Z,53.03
2018-09-17T14:46:08.501Z,49.60
2018-09-17T14:48:42.190Z,49.30
2018-09-17T14:51:17.452Z,48.17
2018-09-17T14:53:57.729Z,49.34
2018-09-17T14:56:35.776Z,48.20
2018-09-17T14:59:11.223Z,47.23
2018-09-17T15:01:41.661Z,46.00
2018-09-17T15:04:13.832Z,46.21
2018-09-17T15:06:47.143Z,47.08
2018-09-17T15:09:18.211Z,49.57
2018-09-17T15:11:51.114Z,48.84
2018-09-17T15:14:24.592Z,49.87
2018-09-17T15:29:56.565Z,48.62
2018-09-17T15:32:26.201Z,47.51
2018-09-17T15:34:59.382Z,47.42
2018-09-17T15:37:30.410Z,47.19
2018-09-17T15:40:02.658Z,47.84
2018-09-17T15:42:33.706Z,49.97
2018-09-17T15:45:04.930Z,51.23
2018-09-17T15:47:36.586Z,50.58
2018-09-17T15:50:06.707Z,51.46
2018-09-17T15:55:17.265Z,52.37
2018-09-17T15:57:53.707Z,53.09
2018-09-17T16:00:23.029Z,53.56
2018-09-17T16:02:58.871Z,53.00
2018-09-17T16:05:32.055Z,53.46
2018-09-17T16:08:01.708Z,53.09
2018-09-17T16:10:35.593Z,54.13
2018-09-17T16:13:06.640Z,54.05
2018-09-17T16:15:39.044Z,54.22
2018-09-17T16:18:12.649Z,54.61
2018-09-17T16:20:46.385Z,54.23
2018-09-17T16:23:22.000Z,54.63
2018-09-17T16:25:51.707Z,55.58
2018-09-17T16:28:21.069Z,54.77
2018-09-17T16:30:50.862Z,54.67
2018-09-17T16:33:25.532Z,55.10
2018-09-17T16:35:55.319Z,55.41
2018-09-17T16:38:25.618Z,55.98
2018-09-17T16:40:57.257Z,56.72
2018-09-17T16:43:27.427Z,57.11
2018-09-17T16:46:01.227Z,58.11
2018-09-17T16:48:33.222Z,56.68
2018-09-17T16:51:04.317Z,57.51
2018-09-17T16:53:34.546Z,57.48
2018-09-17T16:56:04.544Z,58.20
2018-09-17T16:58:37.123Z,58.85
2018-09-17T17:01:09.841Z,59.78
2018-09-17T17:03:42.486Z,60.49
2018-09-17T17:06:14.986Z,60.22
2018-09-17T17:08:48.039Z,61.26
2018-09-17T17:11:17.524Z,62.24
2018-09-17T17:13:50.344Z,62.23
2018-09-17T17:16:21.662Z,62.59
2018-09-17T17:18:53.514Z,63.62
2018-09-17T17:21:22.628Z,64.54
2018-09-17T17:23:54.041Z,63.79
2018-09-17T17:26:24.291Z,64.97
2018-09-17T17:29:01.365Z,65.16
2018-09-17T17:31:32.353Z,66.21
2018-09-17T17:34:01.716Z,67.19
2018-09-17T17:36:32.793Z,67.38
2018-09-17T17:39:02.619Z,68.27
2018-09-17T17:41:35.529Z,68.36
2018-09-17T17:44:04.915Z,69.67
2018-09-17T17:46:36.167Z,70.59
2018-09-17T17:49:05.934Z,71.35
2018-09-17T17:51:35.334Z,72.68
2018-09-17T17:54:04.731Z,72.51
2018-09-17T17:56:35.637Z,73.49
2018-09-17T17:59:08.651Z,73.39
2018-09-17T18:01:38.081Z,74.42
2018-09-17T18:04:10.662Z,74.69
2018-09-17T18:06:40.108Z,75.07
2018-09-17T18:09:12.295Z,75.41
2018-09-17T18:11:43.738Z,75.73
2018-09-17T18:14:18.570Z,76.43
2018-09-17T18:16:49.931Z,76.05
2018-09-17T18:19:20.580Z,77.07
2018-09-17T18:21:52.608Z,77.04
2018-09-17T18:24:23.415Z,77.37
2018-09-17T18:29:48.912Z,78.70
2018-09-17T18:32:25.214Z,78.87
2018-09-17T18:34:56.086Z,78.70
2018-09-17T18:37:26.649Z,79.27
2018-09-17T18:39:56.854Z,80.17
2018-09-17T18:42:26.864Z,80.04
2018-09-17T18:44:58.010Z,80.68
2018-09-17T18:47:28.175Z,80.92
2018-09-17T18:50:00.001Z,80.15
2018-09-17T18:52:32.569Z,80.29
2018-09-17T18:55:03.428Z,81.19
2018-09-17T18:57:33.898Z,81.24
2018-09-17T19:00:04.809Z,81.47
2018-09-17T19:02:38.029Z,82.15
2018-09-17T19:18:13.620Z,82.82
2018-09-17T19:20:52.094Z,82.90
2018-09-17T19:23:27.037Z,83.49
2018-09-17T19:25:57.479Z,83.57
2018-09-17T19:28:32.538Z,84.25
2018-09-17T19:31:05.196Z,84.15
2018-09-17T19:33:35.222Z,84.72
2018-09-17T19:36:06.804Z,84.52
2018-09-17T19:38:43.058Z,84.84
2018-09-17T22:36:16.567Z,91.17
2018-09-17T22:38:45.603Z,90.95
2018-09-17T22:41:14.750Z,91.22
2018-09-17T22:43:43.803Z,91.38
2018-09-17T22:46:12.886Z,91.03
2018-09-17T22:48:41.943Z,91.08
2018-09-17T22:51:11.098Z,91.76
2018-09-17T22:53:40.115Z,91.07
2018-09-17T22:56:09.240Z,91.16
2018-09-17T22:58:38.430Z,91.64
2018-09-17T23:01:07.711Z,91.47
2018-09-17T23:03:36.869Z,91.26
2018-09-17T23:06:06.077Z,91.94
2018-09-17T23:08:35.221Z,91.76
2018-09-17T23:11:04.319Z,91.40
2018-09-17T23:13:33.344Z,91.65
2018-09-17T23:16:02.455Z,91.68
2018-09-17T23:18:31.619Z,91.47
2018-09-17T23:21:00.697Z,90.78
2018-09-17T23:23:29.860Z,91.37
2018-09-17T23:25:58.933Z,91.00
2018-09-17T23:28:29.114Z,91.14
2018-09-17T23:30:58.309Z,91.35
2018-09-17T23:33:27.441Z,91.31
2018-09-17T23:35:56.513Z,91.75
2018-09-17T23:38:25.617Z,91.48
2018-09-17T23:40:54.747Z,91.49
2018-09-17T23:43:23.859Z,92.20
2018-09-17T23:45:52.935Z,92.06
2018-09-17T23:48:22.071Z,91.94
2018-09-17T23:50:51.203Z,92.26
2018-09-17T23:53:20.273Z,91.56
2018-09-17T23:55:49.367Z,92.34
2018-09-17T23:58:18.923Z,92.16
